Currently 53°F in Pinon Hills, California, USA
53°F
53°F / 40°F
1 mph SW
0.00"
Sunday, December 16, 2018 10:13 AM PST

Pinon Hills, California Weather Summary
Last 36 Hours

Temperature Winds Hourly Humidity Dewpoint
Time Report Norm Report Norm Max Gusts Precip. Rpt. Norm Rpt. Norm Pressure
1Sun 10:13 AM  53.2°F  50°F  1 mph SW  3 mph  3 mph  0.00"  43%  48%  30°F  30°F  30.18"
2Sun 10:12 AM  53.4°F  50°F  2 mph NW  3 mph  3 mph  ----  43%  48%  30°F  30°F  30.18"
Sun 10:00 AM  51.9°F  49°F  calm  3 mph  4 mph  0.00"  45%  48%  30°F  30°F  30.18"
Sun 09:00 AM  49.1°F  48°F  1 mph SE  3 mph  6 mph  0.00"  46%  50%  28°F  29°F  30.18"
Sun 08:00 AM  47.0°F  44°F  calm  2 mph  4 mph  0.00"  46%  53%  26°F  27°F  30.17"
Sun 07:00 AM  42.6°F  41°F  calm  3 mph  5 mph  0.00"  50%  57%  25°F  26°F  30.18"
Sun 06:00 AM  40.1°F  41°F  calm  3 mph  3 mph  0.00"  55%  57%  24°F  26°F  30.18"
3Sun 05:57 AM  39.8°F  41°F  1 mph SW  3 mph  3 mph  ----  55%  57%  24°F  26°F  30.18"
Sun 05:00 AM  44.5°F  41°F  2 mph SW  2 mph  5 mph  0.00"  47%  57%  25°F  26°F  30.17"
Sun 04:00 AM  45.7°F  40°F  1 mph SW  2 mph  6 mph  0.00"  45%  58%  25°F  26°F  30.18"
Sun 03:00 AM  47.7°F  41°F  4 mph W  2 mph  7 mph  0.00"  42%  58%  25°F  26°F  30.19"
Sun 02:00 AM  44.4°F  41°F  3 mph SW  3 mph  7 mph  0.00"  48%  58%  25°F  27°F  30.19"
Sun 01:00 AM  48.0°F  41°F  3 mph SW  2 mph  6 mph  0.00"  43%  58%  26°F  27°F  30.18"
Sun 12:00 AM  45.5°F  42°F  3 mph SW  3 mph  6 mph  0.00"  49%  59%  26°F  28°F  30.18"
Sat 11:00 PM  46.0°F  42°F  calm  2 mph  5 mph  0.00"  48%  59%  26°F  28°F  30.19"
Sat 10:00 PM  49.0°F  42°F  4 mph SW  3 mph  5 mph  0.00"  42%  58%  26°F  28°F  30.18"
Sat 09:00 PM  48.1°F  43°F  4 mph SW  3 mph  5 mph  0.00"  43%  58%  26°F  28°F  30.18"
Sat 08:00 PM  48.3°F  43°F  3 mph SW  2 mph  7 mph  0.00"  42%  58%  25°F  29°F  30.18"
Sat 07:00 PM  49.4°F  44°F  5 mph SW  3 mph  8 mph  0.00"  40%  58%  25°F  29°F  30.16"
Sat 06:00 PM  48.6°F  44°F  2 mph S  3 mph  7 mph  0.00"  40%  57%  25°F  29°F  30.14"
Sat 05:00 PM  47.1°F  45°F  5 mph SW  3 mph  7 mph  0.00"  47%  57%  27°F  30°F  30.14"
Sat 04:00 PM  51.9°F  50°F  calm  3 mph  3 mph  0.00"  47%  50%  32°F  31°F  30.12"
Sat 03:00 PM  53.5°F  52°F  1 mph NE  3 mph  8 mph  0.00"  43%  45%  31°F  31°F  30.10"
Sat 02:00 PM  54.1°F  53°F  3 mph NE  3 mph  6 mph  0.00"  41%  45%  30°F  31°F  30.10"
Sat 01:00 PM  56.9°F  53°F  1 mph E  3 mph  5 mph  0.00"  40%  45%  32°F  31°F  30.08"
Sat 12:00 PM  56.4°F  53°F  2 mph E  3 mph  6 mph  0.00"  37%  44%  29°F  30°F  30.10"
Sat 11:00 AM  52.5°F  52°F  calm  4 mph  5 mph  0.00"  36%  46%  25°F  31°F  30.12"
Sat 10:00 AM  49.8°F  50°F  1 mph E  3 mph  9 mph  0.00"  37%  47%  23°F  30°F  30.14"
Sat 09:00 AM  50.8°F  49°F  calm  2 mph  5 mph  0.00"  38%  48%  25°F  29°F  30.11"
Sat 08:00 AM  46.6°F  45°F  calm  2 mph  4 mph  0.00"  32%  52%  17°F  28°F  30.12"
Sat 07:00 AM  41.6°F  42°F  2 mph SW  3 mph  4 mph  0.00"  39%  56%  17°F  26°F  30.14"
Sat 06:00 AM  41.9°F  41°F  2 mph S  3 mph  4 mph  0.00"  36%  56%  15°F  26°F  30.14"
Sat 05:00 AM  41.1°F  42°F  2 mph SW  2 mph  5 mph  0.00"  38%  56%  16°F  26°F  30.14"
Sat 04:00 AM  42.9°F  42°F  2 mph SW  2 mph  5 mph  0.00"  36%  57%  16°F  27°F  30.14"
Sat 03:00 AM  41.4°F  42°F  2 mph SW  2 mph  4 mph  0.00"  40%  57%  18°F  27°F  30.14"
Sat 02:00 AM  42.6°F  42°F  calm  3 mph  4 mph  0.00"  39%  57%  18°F  27°F  30.16"
Sat 01:00 AM  44.4°F  42°F  3 mph S  2 mph  6 mph  0.00"  36%  57%  18°F  27°F  30.16"
Sat 12:00 AM  45.1°F  42°F  3 mph SW  2 mph  5 mph  0.00"  37%  57%  19°F  28°F  30.15"
Fri 11:00 PM  43.6°F  43°F  2 mph SW  2 mph  4 mph  0.00"  41%  57%  20°F  28°F  30.14"

  1. Current weather data. No green row appears if the current weather data is also the high or low for the current day.
  2. High temperature for the current day.
  3. Low temperature for the current day.

The Pinon Hills, California weather pages are a service of WeatherCurrents.
Copyright ©Sun Dec 16 10:13:32 PST 2018  WeatherCurrents. All rights reserved. - Submit questions and comments - Privacy Policy

This page automatically refreshes every 10 minutes.